sensor_id;sensor_type;location;lat;lon;timestamp;P1;durP1;ratioP1;P2;durP2;ratioP2
11986;SDS011;6053;51.382;6.768;2022-09-17T00:01:38;2.33;;;2.13;;
11986;SDS011;6053;51.382;6.768;2022-09-17T00:04:06;2.28;;;2.08;;
11986;SDS011;6053;51.382;6.768;2022-09-17T00:06:36;2.25;;;2.15;;
11986;SDS011;6053;51.382;6.768;2022-09-17T00:09:05;2.60;;;2.17;;
11986;SDS011;6053;51.382;6.768;2022-09-17T00:11:35;2.10;;;2.00;;
11986;SDS011;6053;51.382;6.768;2022-09-17T00:14:07;2.60;;;2.00;;
11986;SDS011;6053;51.382;6.768;2022-09-17T00:16:41;2.50;;;2.30;;
11986;SDS011;6053;51.382;6.768;2022-09-17T00:19:13;3.00;;;2.30;;
11986;SDS011;6053;51.382;6.768;2022-09-17T00:21:44;2.38;;;2.17;;
11986;SDS011;6053;51.382;6.768;2022-09-17T00:24:13;2.40;;;2.30;;
11986;SDS011;6053;51.382;6.768;2022-09-17T00:26:42;2.40;;;2.20;;
11986;SDS011;6053;51.382;6.768;2022-09-17T00:29:11;2.17;;;2.08;;
11986;SDS011;6053;51.382;6.768;2022-09-17T00:31:41;2.38;;;2.05;;
11986;SDS011;6053;51.382;6.768;2022-09-17T00:34:09;2.10;;;2.00;;
11986;SDS011;6053;51.382;6.768;2022-09-17T00:36:38;2.55;;;2.30;;
11986;SDS011;6053;51.382;6.768;2022-09-17T00:39:07;2.90;;;2.60;;
11986;SDS011;6053;51.382;6.768;2022-09-17T00:41:37;2.80;;;2.60;;
11986;SDS011;6053;51.382;6.768;2022-09-17T00:47:15;6.85;;;2.72;;
11986;SDS011;6053;51.382;6.768;2022-09-17T00:49:52;2.70;;;2.50;;
11986;SDS011;6053;51.382;6.768;2022-09-17T00:52:25;2.97;;;2.10;;
11986;SDS011;6053;51.382;6.768;2022-09-17T00:54:58;2.63;;;2.22;;
11986;SDS011;6053;51.382;6.768;2022-09-17T00:57:31;2.08;;;1.98;;
11986;SDS011;6053;51.382;6.768;2022-09-17T01:00:00;2.50;;;2.30;;
11986;SDS011;6053;51.382;6.768;2022-09-17T01:02:32;3.72;;;2.22;;
11986;SDS011;6053;51.382;6.768;2022-09-17T01:05:01;3.90;;;2.40;;
11986;SDS011;6053;51.382;6.768;2022-09-17T01:07:34;2.67;;;2.47;;
11986;SDS011;6053;51.382;6.768;2022-09-17T01:10:22;3.15;;;2.25;;
11986;SDS011;6053;51.382;6.768;2022-09-17T01:13:05;2.25;;;2.08;;
11986;SDS011;6053;51.382;6.768;2022-09-17T01:15:48;2.20;;;2.00;;
11986;SDS011;6053;51.382;6.768;2022-09-17T01:18:43;2.80;;;2.60;;
11986;SDS011;6053;51.382;6.768;2022-09-17T01:21:29;2.93;;;2.13;;
11986;SDS011;6053;51.382;6.768;2022-09-17T01:24:25;2.30;;;2.15;;
11986;SDS011;6053;51.382;6.768;2022-09-17T01:27:45;3.97;;;2.73;;
11986;SDS011;6053;51.382;6.768;2022-09-17T01:33:33;2.95;;;2.42;;
11986;SDS011;6053;51.382;6.768;2022-09-17T01:36:12;2.63;;;2.42;;
11986;SDS011;6053;51.382;6.768;2022-09-17T01:38:51;3.63;;;2.80;;
11986;SDS011;6053;51.382;6.768;2022-09-17T01:41:27;4.55;;;2.92;;
11986;SDS011;6053;51.382;6.768;2022-09-17T01:44:01;2.87;;;2.67;;
11986;SDS011;6053;51.382;6.768;2022-09-17T01:46:39;4.88;;;2.45;;
11986;SDS011;6053;51.382;6.768;2022-09-17T01:49:13;2.13;;;2.10;;
11986;SDS011;6053;51.382;6.768;2022-09-17T01:51:43;4.93;;;2.70;;
11986;SDS011;6053;51.382;6.768;2022-09-17T01:54:16;3.35;;;2.63;;
11986;SDS011;6053;51.382;6.768;2022-09-17T01:56:50;3.40;;;2.53;;
11986;SDS011;6053;51.382;6.768;2022-09-17T01:59:25;3.35;;;2.85;;
11986;SDS011;6053;51.382;6.768;2022-09-17T02:02:00;3.03;;;2.70;;
11986;SDS011;6053;51.382;6.768;2022-09-17T02:04:34;2.63;;;2.42;;
11986;SDS011;6053;51.382;6.768;2022-09-17T02:07:09;5.95;;;2.95;;
11986;SDS011;6053;51.382;6.768;2022-09-17T02:09:42;3.40;;;2.63;;
11986;SDS011;6053;51.382;6.768;2022-09-17T02:12:17;3.90;;;2.73;;
11986;SDS011;6053;51.382;6.768;2022-09-17T02:14:51;3.03;;;2.30;;
11986;SDS011;6053;51.382;6.768;2022-09-17T02:17:26;3.05;;;2.40;;
11986;SDS011;6053;51.382;6.768;2022-09-17T02:19:58;3.13;;;2.55;;
11986;SDS011;6053;51.382;6.768;2022-09-17T02:22:30;3.72;;;2.50;;
11986;SDS011;6053;51.382;6.768;2022-09-17T02:25:07;2.95;;;2.70;;
11986;SDS011;6053;51.382;6.768;2022-09-17T02:27:45;3.50;;;2.55;;
11986;SDS011;6053;51.382;6.768;2022-09-17T02:30:18;2.55;;;2.45;;
11986;SDS011;6053;51.382;6.768;2022-09-17T02:32:48;3.10;;;2.22;;
11986;SDS011;6053;51.382;6.768;2022-09-17T02:35:17;2.63;;;2.42;;
11986;SDS011;6053;51.382;6.768;2022-09-17T02:37:46;3.35;;;2.72;;
11986;SDS011;6053;51.382;6.768;2022-09-17T02:40:15;4.53;;;2.40;;
11986;SDS011;6053;51.382;6.768;2022-09-17T02:42:55;2.47;;;2.28;;
11986;SDS011;6053;51.382;6.768;2022-09-17T02:45:39;3.53;;;2.57;;
11986;SDS011;6053;51.382;6.768;2022-09-17T02:48:20;5.32;;;2.55;;
11986;SDS011;6053;51.382;6.768;2022-09-17T02:51:06;5.47;;;3.00;;
11986;SDS011;6053;51.382;6.768;2022-09-17T02:53:45;2.88;;;2.67;;
11986;SDS011;6053;51.382;6.768;2022-09-17T02:56:24;3.78;;;2.95;;
11986;SDS011;6053;51.382;6.768;2022-09-17T02:59:08;2.95;;;2.67;;
11986;SDS011;6053;51.382;6.768;2022-09-17T03:01:46;4.63;;;2.83;;
11986;SDS011;6053;51.382;6.768;2022-09-17T03:04:21;4.43;;;2.67;;
11986;SDS011;6053;51.382;6.768;2022-09-17T03:06:54;3.08;;;2.60;;
11986;SDS011;6053;51.382;6.768;2022-09-17T03:09:24;2.83;;;2.60;;
11986;SDS011;6053;51.382;6.768;2022-09-17T03:11:53;3.50;;;2.47;;
11986;SDS011;6053;51.382;6.768;2022-09-17T03:14:21;4.35;;;2.70;;
11986;SDS011;6053;51.382;6.768;2022-09-17T03:16:50;3.92;;;2.63;;
11986;SDS011;6053;51.382;6.768;2022-09-17T03:19:19;4.35;;;2.63;;
11986;SDS011;6053;51.382;6.768;2022-09-17T03:21:48;2.93;;;2.63;;
11986;SDS011;6053;51.382;6.768;2022-09-17T03:24:17;3.90;;;2.50;;
11986;SDS011;6053;51.382;6.768;2022-09-17T03:26:46;2.70;;;2.50;;
11986;SDS011;6053;51.382;6.768;2022-09-17T03:29:15;3.90;;;2.58;;
11986;SDS011;6053;51.382;6.768;2022-09-17T03:31:44;3.53;;;2.60;;
11986;SDS011;6053;51.382;6.768;2022-09-17T03:34:13;3.08;;;2.40;;
11986;SDS011;6053;51.382;6.768;2022-09-17T03:36:41;4.50;;;2.80;;
11986;SDS011;6053;51.382;6.768;2022-09-17T03:39:11;2.60;;;2.40;;
11986;SDS011;6053;51.382;6.768;2022-09-17T03:41:40;3.00;;;2.30;;
11986;SDS011;6053;51.382;6.768;2022-09-17T03:44:08;2.50;;;2.30;;
11986;SDS011;6053;51.382;6.768;2022-09-17T03:46:37;3.30;;;2.30;;
11986;SDS011;6053;51.382;6.768;2022-09-17T03:49:06;3.97;;;2.42;;
11986;SDS011;6053;51.382;6.768;2022-09-17T03:51:35;6.82;;;2.92;;
11986;SDS011;6053;51.382;6.768;2022-09-17T03:54:03;3.50;;;2.50;;
11986;SDS011;6053;51.382;6.768;2022-09-17T03:56:33;3.47;;;2.53;;
11986;SDS011;6053;51.382;6.768;2022-09-17T03:59:02;3.13;;;2.40;;
11986;SDS011;6053;51.382;6.768;2022-09-17T04:01:30;2.50;;;2.30;;
11986;SDS011;6053;51.382;6.768;2022-09-17T04:03:59;2.70;;;2.50;;
11986;SDS011;6053;51.382;6.768;2022-09-17T04:06:28;3.58;;;2.53;;
11986;SDS011;6053;51.382;6.768;2022-09-17T04:08:57;3.42;;;2.38;;
11986;SDS011;6053;51.382;6.768;2022-09-17T04:11:28;2.50;;;2.40;;
11986;SDS011;6053;51.382;6.768;2022-09-17T04:13:58;2.97;;;2.67;;
11986;SDS011;6053;51.382;6.768;2022-09-17T04:16:27;2.73;;;2.53;;
11986;SDS011;6053;51.382;6.768;2022-09-17T04:18:55;5.20;;;2.40;;
11986;SDS011;6053;51.382;6.768;2022-09-17T04:21:24;7.25;;;2.80;;
11986;SDS011;6053;51.382;6.768;2022-09-17T04:23:53;4.83;;;3.00;;
11986;SDS011;6053;51.382;6.768;2022-09-17T04:26:21;2.55;;;2.35;;
11986;SDS011;6053;51.382;6.768;2022-09-17T04:28:50;6.75;;;3.00;;
11986;SDS011;6053;51.382;6.768;2022-09-17T04:31:20;3.83;;;2.70;;
11986;SDS011;6053;51.382;6.768;2022-09-17T04:33:50;3.53;;;3.17;;
11986;SDS011;6053;51.382;6.768;2022-09-17T04:36:18;2.28;;;2.08;;
11986;SDS011;6053;51.382;6.768;2022-09-17T04:38:47;3.20;;;2.90;;
11986;SDS011;6053;51.382;6.768;2022-09-17T04:41:16;2.83;;;2.58;;
11986;SDS011;6053;51.382;6.768;2022-09-17T04:43:44;2.22;;;2.00;;
11986;SDS011;6053;51.382;6.768;2022-09-17T04:46:13;3.43;;;2.47;;
11986;SDS011;6053;51.382;6.768;2022-09-17T04:48:43;3.88;;;2.45;;
11986;SDS011;6053;51.382;6.768;2022-09-17T04:51:12;2.58;;;2.28;;
11986;SDS011;6053;51.382;6.768;2022-09-17T04:53:40;3.88;;;2.30;;
11986;SDS011;6053;51.382;6.768;2022-09-17T04:56:09;3.00;;;2.67;;
11986;SDS011;6053;51.382;6.768;2022-09-17T04:58:38;2.42;;;2.30;;
11986;SDS011;6053;51.382;6.768;2022-09-17T05:01:06;3.22;;;2.70;;
11986;SDS011;6053;51.382;6.768;2022-09-17T05:03:35;4.22;;;2.65;;
11986;SDS011;6053;51.382;6.768;2022-09-17T05:06:05;3.33;;;2.97;;
11986;SDS011;6053;51.382;6.768;2022-09-17T05:08:33;4.10;;;2.55;;
11986;SDS011;6053;51.382;6.768;2022-09-17T05:11:02;4.23;;;2.13;;
11986;SDS011;6053;51.382;6.768;2022-09-17T05:13:31;2.50;;;2.27;;
11986;SDS011;6053;51.382;6.768;2022-09-17T05:16:00;2.88;;;2.67;;
11986;SDS011;6053;51.382;6.768;2022-09-17T05:18:29;3.20;;;2.20;;
11986;SDS011;6053;51.382;6.768;2022-09-17T05:20:57;4.07;;;3.08;;
11986;SDS011;6053;51.382;6.768;2022-09-17T05:23:27;3.40;;;2.90;;
11986;SDS011;6053;51.382;6.768;2022-09-17T05:25:56;2.63;;;2.40;;
11986;SDS011;6053;51.382;6.768;2022-09-17T05:28:25;3.22;;;2.20;;
11986;SDS011;6053;51.382;6.768;2022-09-17T05:30:57;4.93;;;3.00;;
11986;SDS011;6053;51.382;6.768;2022-09-17T05:33:26;3.55;;;2.92;;
11986;SDS011;6053;51.382;6.768;2022-09-17T05:35:55;3.38;;;2.83;;
11986;SDS011;6053;51.382;6.768;2022-09-17T05:38:25;3.20;;;2.75;;
11986;SDS011;6053;51.382;6.768;2022-09-17T05:40:55;2.88;;;2.65;;
11986;SDS011;6053;51.382;6.768;2022-09-17T05:43:23;2.67;;;2.47;;
11986;SDS011;6053;51.382;6.768;2022-09-17T05:45:52;2.88;;;2.70;;
11986;SDS011;6053;51.382;6.768;2022-09-17T05:48:20;2.30;;;2.20;;
11986;SDS011;6053;51.382;6.768;2022-09-17T05:50:49;2.72;;;2.63;;
11986;SDS011;6053;51.382;6.768;2022-09-17T05:53:17;3.00;;;2.47;;
11986;SDS011;6053;51.382;6.768;2022-09-17T05:55:47;3.35;;;2.55;;
11986;SDS011;6053;51.382;6.768;2022-09-17T05:58:16;3.65;;;2.83;;
11986;SDS011;6053;51.382;6.768;2022-09-17T06:00:46;3.22;;;2.88;;
11986;SDS011;6053;51.382;6.768;2022-09-17T06:03:15;2.53;;;2.33;;
11986;SDS011;6053;51.382;6.768;2022-09-17T06:05:51;2.85;;;2.22;;
11986;SDS011;6053;51.382;6.768;2022-09-17T06:08:21;3.70;;;2.67;;
11986;SDS011;6053;51.382;6.768;2022-09-17T06:10:50;3.00;;;2.70;;
11986;SDS011;6053;51.382;6.768;2022-09-17T06:13:25;2.78;;;2.58;;
11986;SDS011;6053;51.382;6.768;2022-09-17T06:15:54;2.92;;;2.15;;
11986;SDS011;6053;51.382;6.768;2022-09-17T06:18:23;2.27;;;2.10;;
11986;SDS011;6053;51.382;6.768;2022-09-17T06:20:52;2.45;;;2.35;;
11986;SDS011;6053;51.382;6.768;2022-09-17T06:23:21;3.40;;;3.10;;
11986;SDS011;6053;51.382;6.768;2022-09-17T06:25:52;2.90;;;2.70;;
11986;SDS011;6053;51.382;6.768;2022-09-17T06:28:22;2.58;;;2.38;;
11986;SDS011;6053;51.382;6.768;2022-09-17T06:30:51;2.78;;;2.53;;
11986;SDS011;6053;51.382;6.768;2022-09-17T06:33:22;5.35;;;2.72;;
11986;SDS011;6053;51.382;6.768;2022-09-17T06:35:54;3.13;;;2.78;;
11986;SDS011;6053;51.382;6.768;2022-09-17T06:38:26;2.80;;;2.50;;
11986;SDS011;6053;51.382;6.768;2022-09-17T06:40:57;4.10;;;2.65;;
11986;SDS011;6053;51.382;6.768;2022-09-17T06:43:26;2.40;;;2.20;;
11986;SDS011;6053;51.382;6.768;2022-09-17T06:45:55;2.70;;;2.60;;
11986;SDS011;6053;51.382;6.768;2022-09-17T06:48:25;3.00;;;2.80;;
11986;SDS011;6053;51.382;6.768;2022-09-17T06:50:54;2.92;;;2.72;;
11986;SDS011;6053;51.382;6.768;2022-09-17T06:53:28;3.03;;;2.60;;
11986;SDS011;6053;51.382;6.768;2022-09-17T06:55:59;3.58;;;2.45;;
11986;SDS011;6053;51.382;6.768;2022-09-17T06:58:32;3.88;;;2.50;;
11986;SDS011;6053;51.382;6.768;2022-09-17T07:01:02;3.73;;;2.60;;
11986;SDS011;6053;51.382;6.768;2022-09-17T07:03:32;2.25;;;2.15;;
11986;SDS011;6053;51.382;6.768;2022-09-17T07:06:01;3.40;;;2.78;;
11986;SDS011;6053;51.382;6.768;2022-09-17T07:08:30;4.80;;;2.65;;
11986;SDS011;6053;51.382;6.768;2022-09-17T07:11:02;2.78;;;2.53;;
11986;SDS011;6053;51.382;6.768;2022-09-17T07:13:30;3.03;;;2.72;;
11986;SDS011;6053;51.382;6.768;2022-09-17T07:15:59;4.22;;;2.92;;
11986;SDS011;6053;51.382;6.768;2022-09-17T07:18:30;3.10;;;2.30;;
11986;SDS011;6053;51.382;6.768;2022-09-17T07:20:59;2.47;;;2.30;;
11986;SDS011;6053;51.382;6.768;2022-09-17T07:23:29;3.15;;;2.53;;
11986;SDS011;6053;51.382;6.768;2022-09-17T07:26:00;2.92;;;2.67;;
11986;SDS011;6053;51.382;6.768;2022-09-17T07:28:31;3.50;;;2.33;;
11986;SDS011;6053;51.382;6.768;2022-09-17T07:31:01;2.47;;;2.17;;
11986;SDS011;6053;51.382;6.768;2022-09-17T07:33:32;2.58;;;2.47;;
11986;SDS011;6053;51.382;6.768;2022-09-17T07:36:03;3.03;;;2.80;;
11986;SDS011;6053;51.382;6.768;2022-09-17T07:38:33;4.05;;;2.33;;
11986;SDS011;6053;51.382;6.768;2022-09-17T07:41:04;2.92;;;2.72;;
11986;SDS011;6053;51.382;6.768;2022-09-17T07:43:34;3.07;;;2.80;;
11986;SDS011;6053;51.382;6.768;2022-09-17T07:46:03;2.97;;;2.75;;
11986;SDS011;6053;51.382;6.768;2022-09-17T07:48:34;2.65;;;2.45;;
11986;SDS011;6053;51.382;6.768;2022-09-17T07:51:02;2.90;;;2.40;;
11986;SDS011;6053;51.382;6.768;2022-09-17T07:53:31;3.42;;;2.92;;
11986;SDS011;6053;51.382;6.768;2022-09-17T07:55:59;3.38;;;2.40;;
11986;SDS011;6053;51.382;6.768;2022-09-17T07:58:30;3.80;;;2.70;;
11986;SDS011;6053;51.382;6.768;2022-09-17T08:01:01;4.13;;;2.80;;
11986;SDS011;6053;51.382;6.768;2022-09-17T08:03:30;4.90;;;2.55;;
11986;SDS011;6053;51.382;6.768;2022-09-17T08:06:00;2.42;;;2.28;;
11986;SDS011;6053;51.382;6.768;2022-09-17T08:08:30;3.25;;;2.50;;
11986;SDS011;6053;51.382;6.768;2022-09-17T08:11:01;2.35;;;2.25;;
11986;SDS011;6053;51.382;6.768;2022-09-17T08:13:32;3.42;;;2.45;;
11986;SDS011;6053;51.382;6.768;2022-09-17T08:16:02;3.20;;;2.53;;
11986;SDS011;6053;51.382;6.768;2022-09-17T08:18:32;3.00;;;2.80;;
11986;SDS011;6053;51.382;6.768;2022-09-17T08:21:02;2.90;;;2.30;;
11986;SDS011;6053;51.382;6.768;2022-09-17T08:23:33;4.82;;;2.50;;
11986;SDS011;6053;51.382;6.768;2022-09-17T08:26:02;2.15;;;2.05;;
11986;SDS011;6053;51.382;6.768;2022-09-17T08:28:35;3.20;;;2.53;;
11986;SDS011;6053;51.382;6.768;2022-09-17T08:31:04;2.50;;;1.97;;
11986;SDS011;6053;51.382;6.768;2022-09-17T08:33:34;3.70;;;2.80;;
11986;SDS011;6053;51.382;6.768;2022-09-17T08:36:04;3.25;;;2.65;;
11986;SDS011;6053;51.382;6.768;2022-09-17T08:38:35;2.17;;;2.08;;
11986;SDS011;6053;51.382;6.768;2022-09-17T08:41:06;2.55;;;2.20;;
11986;SDS011;6053;51.382;6.768;2022-09-17T08:43:46;2.55;;;2.33;;
11986;SDS011;6053;51.382;6.768;2022-09-17T08:46:25;2.85;;;2.40;;
11986;SDS011;6053;51.382;6.768;2022-09-17T08:49:00;3.00;;;2.30;;
11986;SDS011;6053;51.382;6.768;2022-09-17T08:51:36;2.97;;;2.63;;
11986;SDS011;6053;51.382;6.768;2022-09-17T08:54:15;2.50;;;2.30;;
11986;SDS011;6053;51.382;6.768;2022-09-17T08:56:50;3.00;;;2.63;;
11986;SDS011;6053;51.382;6.768;2022-09-17T08:59:35;2.20;;;2.10;;
11986;SDS011;6053;51.382;6.768;2022-09-17T09:02:15;2.38;;;1.88;;
11986;SDS011;6053;51.382;6.768;2022-09-17T09:04:56;3.83;;;2.22;;
11986;SDS011;6053;51.382;6.768;2022-09-17T09:07:29;3.33;;;2.42;;
11986;SDS011;6053;51.382;6.768;2022-09-17T09:10:06;5.50;;;2.60;;
11986;SDS011;6053;51.382;6.768;2022-09-17T09:12:45;2.30;;;2.10;;
11986;SDS011;6053;51.382;6.768;2022-09-17T09:15:30;2.50;;;2.40;;
11986;SDS011;6053;51.382;6.768;2022-09-17T09:18:06;2.67;;;2.20;;
11986;SDS011;6053;51.382;6.768;2022-09-17T09:20:47;3.38;;;2.30;;
11986;SDS011;6053;51.382;6.768;2022-09-17T09:23:19;4.13;;;2.50;;
11986;SDS011;6053;51.382;6.768;2022-09-17T09:25:54;5.20;;;2.10;;
11986;SDS011;6053;51.382;6.768;2022-09-17T09:28:34;2.58;;;2.38;;
11986;SDS011;6053;51.382;6.768;2022-09-17T09:31:19;2.63;;;2.30;;
11986;SDS011;6053;51.382;6.768;2022-09-17T09:34:01;1.85;;;1.75;;
11986;SDS011;6053;51.382;6.768;2022-09-17T09:36:31;2.20;;;2.10;;
11986;SDS011;6053;51.382;6.768;2022-09-17T09:39:01;1.98;;;1.80;;
11986;SDS011;6053;51.382;6.768;2022-09-17T09:41:38;2.22;;;2.13;;
11986;SDS011;6053;51.382;6.768;2022-09-17T09:44:12;2.13;;;1.95;;
11986;SDS011;6053;51.382;6.768;2022-09-17T09:49:39;2.07;;;1.97;;
11986;SDS011;6053;51.382;6.768;2022-09-17T09:52:22;2.40;;;1.90;;
11986;SDS011;6053;51.382;6.768;2022-09-17T09:55:05;3.50;;;1.88;;
11986;SDS011;6053;51.382;6.768;2022-09-17T09:57:52;2.40;;;2.20;;
11986;SDS011;6053;51.382;6.768;2022-09-17T10:00:31;2.35;;;2.00;;
11986;SDS011;6053;51.382;6.768;2022-09-17T10:03:08;2.40;;;2.08;;
11986;SDS011;6053;51.382;6.768;2022-09-17T10:05:48;2.28;;;2.17;;
11986;SDS011;6053;51.382;6.768;2022-09-17T10:08:20;2.20;;;2.00;;
11986;SDS011;6053;51.382;6.768;2022-09-17T10:10:59;2.15;;;2.00;;
11986;SDS011;6053;51.382;6.768;2022-09-17T10:13:30;2.72;;;2.15;;
11986;SDS011;6053;51.382;6.768;2022-09-17T10:16:14;2.38;;;2.20;;
11986;SDS011;6053;51.382;6.768;2022-09-17T10:18:45;2.17;;;2.03;;
11986;SDS011;6053;51.382;6.768;2022-09-17T10:21:18;2.67;;;1.90;;
11986;SDS011;6053;51.382;6.768;2022-09-17T10:23:48;3.20;;;2.20;;
11986;SDS011;6053;51.382;6.768;2022-09-17T10:26:23;1.88;;;1.77;;
11986;SDS011;6053;51.382;6.768;2022-09-17T10:28:56;3.67;;;2.03;;
11986;SDS011;6053;51.382;6.768;2022-09-17T10:31:26;3.13;;;2.17;;
11986;SDS011;6053;51.382;6.768;2022-09-17T10:34:18;2.40;;;2.20;;
11986;SDS011;6053;51.382;6.768;2022-09-17T10:36:48;2.08;;;1.77;;
11986;SDS011;6053;51.382;6.768;2022-09-17T10:39:22;2.80;;;1.97;;
11986;SDS011;6053;51.382;6.768;2022-09-17T10:41:59;2.05;;;1.95;;
11986;SDS011;6053;51.382;6.768;2022-09-17T10:44:30;2.50;;;2.30;;
11986;SDS011;6053;51.382;6.768;2022-09-17T10:47:01;2.05;;;1.70;;
11986;SDS011;6053;51.382;6.768;2022-09-17T10:49:37;2.28;;;1.80;;
11986;SDS011;6053;51.382;6.768;2022-09-17T10:52:13;1.40;;;1.40;;
11986;SDS011;6053;51.382;6.768;2022-09-17T10:57:51;3.20;;;2.00;;
11986;SDS011;6053;51.382;6.768;2022-09-17T11:00:48;2.03;;;1.88;;
11986;SDS011;6053;51.382;6.768;2022-09-17T11:03:42;1.60;;;1.50;;
11986;SDS011;6053;51.382;6.768;2022-09-17T11:09:02;1.63;;;1.63;;
11986;SDS011;6053;51.382;6.768;2022-09-17T11:11:44;2.00;;;1.90;;
11986;SDS011;6053;51.382;6.768;2022-09-17T11:14:30;2.63;;;1.90;;
11986;SDS011;6053;51.382;6.768;2022-09-17T11:17:21;2.25;;;2.05;;
11986;SDS011;6053;51.382;6.768;2022-09-17T11:20:10;2.20;;;1.98;;
11986;SDS011;6053;51.382;6.768;2022-09-17T11:22:50;1.90;;;1.80;;
11986;SDS011;6053;51.382;6.768;2022-09-17T11:25:35;2.20;;;2.10;;
11986;SDS011;6053;51.382;6.768;2022-09-17T11:28:14;2.03;;;1.93;;
11986;SDS011;6053;51.382;6.768;2022-09-17T11:31:02;1.80;;;1.70;;
11986;SDS011;6053;51.382;6.768;2022-09-17T11:33:50;1.75;;;1.75;;
11986;SDS011;6053;51.382;6.768;2022-09-17T11:36:32;2.00;;;1.90;;
11986;SDS011;6053;51.382;6.768;2022-09-17T11:39:12;1.90;;;1.90;;
11986;SDS011;6053;51.382;6.768;2022-09-17T11:41:47;1.80;;;1.80;;
11986;SDS011;6053;51.382;6.768;2022-09-17T11:44:20;1.98;;;1.88;;
11986;SDS011;6053;51.382;6.768;2022-09-17T11:46:54;1.80;;;1.70;;
11986;SDS011;6053;51.382;6.768;2022-09-17T11:49:32;1.63;;;1.52;;
11986;SDS011;6053;51.382;6.768;2022-09-17T11:52:04;2.20;;;1.50;;
11986;SDS011;6053;51.382;6.768;2022-09-17T11:54:38;1.80;;;1.80;;
11986;SDS011;6053;51.382;6.768;2022-09-17T11:57:14;1.67;;;1.67;;
11986;SDS011;6053;51.382;6.768;2022-09-17T11:59:46;1.73;;;1.73;;
11986;SDS011;6053;51.382;6.768;2022-09-17T12:02:21;1.77;;;1.77;;
11986;SDS011;6053;51.382;6.768;2022-09-17T12:04:54;1.90;;;1.80;;
11986;SDS011;6053;51.382;6.768;2022-09-17T12:07:34;1.73;;;1.73;;
11986;SDS011;6053;51.382;6.768;2022-09-17T12:10:15;1.75;;;1.65;;
11986;SDS011;6053;51.382;6.768;2022-09-17T12:13:17;1.90;;;1.90;;
11986;SDS011;6053;51.382;6.768;2022-09-17T12:15:54;2.13;;;2.03;;
11986;SDS011;6053;51.382;6.768;2022-09-17T12:18:31;3.03;;;1.75;;
11986;SDS011;6053;51.382;6.768;2022-09-17T12:21:12;1.92;;;1.83;;
11986;SDS011;6053;51.382;6.768;2022-09-17T12:23:46;1.92;;;1.83;;
11986;SDS011;6053;51.382;6.768;2022-09-17T12:26:24;1.60;;;1.60;;
11986;SDS011;6053;51.382;6.768;2022-09-17T12:29:03;1.60;;;1.60;;
11986;SDS011;6053;51.382;6.768;2022-09-17T12:31:39;2.13;;;2.03;;
11986;SDS011;6053;51.382;6.768;2022-09-17T12:34:24;2.20;;;2.20;;
11986;SDS011;6053;51.382;6.768;2022-09-17T12:37:02;2.10;;;2.00;;
11986;SDS011;6053;51.382;6.768;2022-09-17T12:40:02;2.00;;;2.00;;
11986;SDS011;6053;51.382;6.768;2022-09-17T12:42:41;2.40;;;2.30;;
11986;SDS011;6053;51.382;6.768;2022-09-17T12:45:31;1.98;;;1.88;;
11986;SDS011;6053;51.382;6.768;2022-09-17T12:48:27;1.90;;;1.90;;
11986;SDS011;6053;51.382;6.768;2022-09-17T12:51:24;1.85;;;1.75;;
11986;SDS011;6053;51.382;6.768;2022-09-17T12:54:14;2.30;;;2.20;;
11986;SDS011;6053;51.382;6.768;2022-09-17T12:56:56;2.20;;;2.10;;
11986;SDS011;6053;51.382;6.768;2022-09-17T12:59:35;1.90;;;1.87;;
11986;SDS011;6053;51.382;6.768;2022-09-17T13:02:16;1.95;;;1.85;;
11986;SDS011;6053;51.382;6.768;2022-09-17T13:04:57;1.83;;;1.83;;
11986;SDS011;6053;51.382;6.768;2022-09-17T13:08:23;1.80;;;1.80;;
11986;SDS011;6053;51.382;6.768;2022-09-17T13:11:24;2.17;;;2.00;;
11986;SDS011;6053;51.382;6.768;2022-09-17T13:14:14;1.70;;;1.60;;
11986;SDS011;6053;51.382;6.768;2022-09-17T13:16:51;1.63;;;1.63;;
11986;SDS011;6053;51.382;6.768;2022-09-17T13:19:29;2.40;;;2.17;;
11986;SDS011;6053;51.382;6.768;2022-09-17T13:22:06;2.10;;;1.90;;
11986;SDS011;6053;51.382;6.768;2022-09-17T13:24:40;1.90;;;1.80;;
11986;SDS011;6053;51.382;6.768;2022-09-17T13:27:30;2.00;;;1.90;;
11986;SDS011;6053;51.382;6.768;2022-09-17T13:30:03;2.10;;;2.00;;
11986;SDS011;6053;51.382;6.768;2022-09-17T13:35:49;2.10;;;2.00;;
11986;SDS011;6053;51.382;6.768;2022-09-17T13:38:18;2.42;;;2.30;;
11986;SDS011;6053;51.382;6.768;2022-09-17T13:40:50;1.90;;;1.80;;
11986;SDS011;6053;51.382;6.768;2022-09-17T13:43:20;2.30;;;1.65;;
11986;SDS011;6053;51.382;6.768;2022-09-17T13:46:06;2.22;;;2.03;;
11986;SDS011;6053;51.382;6.768;2022-09-17T13:48:43;3.33;;;2.00;;
11986;SDS011;6053;51.382;6.768;2022-09-17T13:54:35;2.58;;;2.08;;
11986;SDS011;6053;51.382;6.768;2022-09-17T13:57:06;2.35;;;2.15;;
11986;SDS011;6053;51.382;6.768;2022-09-17T13:59:39;2.20;;;1.98;;
11986;SDS011;6053;51.382;6.768;2022-09-17T14:02:31;2.15;;;1.95;;
11986;SDS011;6053;51.382;6.768;2022-09-17T14:08:11;1.85;;;1.75;;
11986;SDS011;6053;51.382;6.768;2022-09-17T14:11:01;2.50;;;2.20;;
11986;SDS011;6053;51.382;6.768;2022-09-17T14:13:50;1.88;;;1.77;;
11986;SDS011;6053;51.382;6.768;2022-09-17T14:22:13;2.08;;;1.98;;
11986;SDS011;6053;51.382;6.768;2022-09-17T14:24:46;2.00;;;1.90;;
11986;SDS011;6053;51.382;6.768;2022-09-17T14:27:24;2.20;;;2.00;;
11986;SDS011;6053;51.382;6.768;2022-09-17T14:30:11;2.35;;;2.20;;
11986;SDS011;6053;51.382;6.768;2022-09-17T14:32:43;2.07;;;1.97;;
11986;SDS011;6053;51.382;6.768;2022-09-17T14:35:20;2.23;;;2.00;;
11986;SDS011;6053;51.382;6.768;2022-09-17T14:37:54;2.30;;;2.03;;
11986;SDS011;6053;51.382;6.768;2022-09-17T14:40:26;2.55;;;1.90;;
11986;SDS011;6053;51.382;6.768;2022-09-17T14:42:58;2.30;;;2.10;;
11986;SDS011;6053;51.382;6.768;2022-09-17T14:45:30;2.75;;;2.20;;
11986;SDS011;6053;51.382;6.768;2022-09-17T14:51:22;2.08;;;1.98;;
11986;SDS011;6053;51.382;6.768;2022-09-17T14:54:07;2.30;;;2.20;;
11986;SDS011;6053;51.382;6.768;2022-09-17T14:56:45;1.77;;;1.77;;
11986;SDS011;6053;51.382;6.768;2022-09-17T14:59:24;2.00;;;1.90;;
11986;SDS011;6053;51.382;6.768;2022-09-17T15:02:17;2.58;;;2.10;;
11986;SDS011;6053;51.382;6.768;2022-09-17T15:04:55;2.25;;;2.15;;
11986;SDS011;6053;51.382;6.768;2022-09-17T15:07:25;2.03;;;1.83;;
11986;SDS011;6053;51.382;6.768;2022-09-17T15:10:04;2.30;;;2.10;;
11986;SDS011;6053;51.382;6.768;2022-09-17T15:12:34;2.53;;;2.10;;
11986;SDS011;6053;51.382;6.768;2022-09-17T15:15:08;1.80;;;1.80;;
11986;SDS011;6053;51.382;6.768;2022-09-17T15:17:43;2.15;;;2.05;;
11986;SDS011;6053;51.382;6.768;2022-09-17T15:20:14;2.30;;;2.10;;
11986;SDS011;6053;51.382;6.768;2022-09-17T15:22:47;2.15;;;2.08;;
11986;SDS011;6053;51.382;6.768;2022-09-17T15:25:22;3.17;;;2.20;;
11986;SDS011;6053;51.382;6.768;2022-09-17T15:27:52;2.20;;;2.08;;
11986;SDS011;6053;51.382;6.768;2022-09-17T15:30:26;1.92;;;1.83;;
11986;SDS011;6053;51.382;6.768;2022-09-17T15:32:55;2.35;;;2.15;;
11986;SDS011;6053;51.382;6.768;2022-09-17T15:35:25;2.10;;;1.90;;
11986;SDS011;6053;51.382;6.768;2022-09-17T15:37:56;2.58;;;2.22;;
11986;SDS011;6053;51.382;6.768;2022-09-17T15:40:47;2.10;;;2.00;;
11986;SDS011;6053;51.382;6.768;2022-09-17T15:43:17;2.10;;;2.00;;
11986;SDS011;6053;51.382;6.768;2022-09-17T15:45:53;2.20;;;2.10;;
11986;SDS011;6053;51.382;6.768;2022-09-17T15:48:33;2.13;;;2.03;;
11986;SDS011;6053;51.382;6.768;2022-09-17T15:51:04;1.98;;;1.88;;
11986;SDS011;6053;51.382;6.768;2022-09-17T15:53:49;1.95;;;1.85;;
11986;SDS011;6053;51.382;6.768;2022-09-17T15:56:19;2.97;;;2.33;;
11986;SDS011;6053;51.382;6.768;2022-09-17T15:58:57;2.67;;;2.40;;
11986;SDS011;6053;51.382;6.768;2022-09-17T16:04:23;3.00;;;2.17;;
11986;SDS011;6053;51.382;6.768;2022-09-17T16:06:54;2.45;;;2.22;;
11986;SDS011;6053;51.382;6.768;2022-09-17T16:09:38;3.78;;;2.25;;
11986;SDS011;6053;51.382;6.768;2022-09-17T16:12:15;2.55;;;2.35;;
11986;SDS011;6053;51.382;6.768;2022-09-17T16:14:46;2.28;;;2.17;;
11986;SDS011;6053;51.382;6.768;2022-09-17T16:17:24;2.17;;;1.98;;
11986;SDS011;6053;51.382;6.768;2022-09-17T16:20:03;2.17;;;2.07;;
11986;SDS011;6053;51.382;6.768;2022-09-17T16:22:35;2.60;;;2.40;;